createdAt,value
2018-07-09T00:01:00.363Z,69.60
2018-07-09T00:03:28.699Z,69.80
2018-07-09T00:05:56.991Z,68.10
2018-07-09T00:08:25.350Z,67.40
2018-07-09T00:11:01.040Z,64.60
2018-07-09T00:13:29.919Z,63.00
2018-07-09T00:15:58.366Z,61.70
2018-07-09T00:18:26.734Z,62.10
2018-07-09T00:20:55.016Z,61.30
2018-07-09T00:23:23.351Z,59.40
2018-07-09T00:25:52.392Z,58.40
2018-07-09T00:28:21.266Z,57.70
2018-07-09T00:30:49.566Z,57.50
2018-07-09T00:33:18.334Z,57.40
2018-07-09T00:35:47.040Z,55.80
2018-07-09T00:38:15.558Z,55.90
2018-07-09T00:40:43.844Z,55.90
2018-07-09T00:43:12.127Z,55.50
2018-07-09T00:45:40.473Z,55.70
2018-07-09T00:48:08.780Z,55.90
2018-07-09T00:50:37.108Z,55.40
2018-07-09T00:53:05.504Z,55.80
2018-07-09T00:55:34.128Z,55.40
2018-07-09T00:58:02.444Z,55.70
2018-07-09T01:00:30.990Z,55.90
2018-07-09T01:02:59.334Z,55.70
2018-07-09T01:05:27.742Z,56.00
2018-07-09T01:07:56.079Z,55.50
2018-07-09T01:10:24.501Z,55.50
2018-07-09T01:12:52.756Z,54.80
2018-07-09T01:15:21.098Z,54.80
2018-07-09T01:17:49.398Z,55.20
2018-07-09T01:20:17.711Z,55.30
2018-07-09T01:22:46.128Z,55.30
2018-07-09T01:25:14.378Z,55.10
2018-07-09T01:27:42.692Z,55.50
2018-07-09T01:30:13.673Z,55.60
2018-07-09T01:32:42.015Z,55.40
2018-07-09T01:35:11.231Z,55.70
2018-07-09T01:37:40.292Z,55.70
2018-07-09T01:40:09.027Z,56.00
2018-07-09T01:42:37.479Z,56.40
2018-07-09T01:45:05.870Z,56.50
2018-07-09T01:47:34.138Z,56.70
2018-07-09T01:50:02.507Z,56.70
2018-07-09T01:52:31.142Z,56.80
2018-07-09T01:54:59.777Z,56.90
2018-07-09T01:57:28.104Z,56.80
2018-07-09T01:59:56.443Z,56.80
2018-07-09T02:02:24.750Z,57.00
2018-07-09T02:04:53.036Z,57.00
2018-07-09T02:07:21.327Z,57.00
2018-07-09T02:09:49.639Z,57.00
2018-07-09T02:12:17.935Z,56.80
2018-07-09T02:14:46.272Z,56.70
2018-07-09T02:17:14.530Z,56.60
2018-07-09T02:19:42.818Z,55.80
2018-07-09T02:22:11.072Z,55.90
2018-07-09T02:24:39.398Z,56.50
2018-07-09T02:27:07.718Z,56.70
2018-07-09T02:29:35.981Z,56.90
2018-07-09T02:32:04.295Z,57.30
2018-07-09T02:34:32.588Z,57.30
2018-07-09T02:37:02.165Z,57.60
2018-07-09T02:39:30.489Z,57.00
2018-07-09T02:42:00.244Z,57.30
2018-07-09T02:44:28.553Z,57.50
2018-07-09T02:46:56.835Z,57.60
2018-07-09T02:49:25.151Z,57.50
2018-07-09T02:51:53.682Z,57.60
2018-07-09T02:54:21.919Z,57.50
2018-07-09T02:56:50.224Z,57.60
2018-07-09T02:59:18.487Z,57.50
2018-07-09T03:01:46.809Z,57.60
2018-07-09T03:04:15.095Z,58.00
2018-07-09T03:06:44.230Z,58.50
2018-07-09T03:09:12.504Z,58.60
2018-07-09T03:11:40.780Z,57.90
2018-07-09T03:14:09.062Z,57.50
2018-07-09T03:16:37.341Z,57.60
2018-07-09T03:19:05.785Z,57.40
2018-07-09T03:21:34.024Z,58.00
2018-07-09T03:24:02.256Z,58.30
2018-07-09T03:26:30.535Z,58.10
2018-07-09T03:28:58.923Z,57.50
2018-07-09T03:31:27.203Z,57.60
2018-07-09T03:33:55.559Z,58.30
2018-07-09T03:36:23.832Z,58.50
2018-07-09T03:38:52.161Z,58.30
2018-07-09T03:41:20.524Z,58.60
2018-07-09T03:43:49.080Z,58.50
2018-07-09T03:46:17.350Z,58.50
2018-07-09T03:48:45.592Z,58.50
2018-07-09T03:51:13.860Z,58.20
2018-07-09T03:53:42.161Z,58.80
2018-07-09T03:56:10.519Z,58.50
2018-07-09T03:58:38.796Z,59.00
2018-07-09T04:01:07.255Z,59.30
2018-07-09T04:03:35.593Z,59.20
2018-07-09T04:06:03.884Z,59.20
2018-07-09T04:08:32.192Z,59.00
2018-07-09T04:11:00.496Z,58.80
2018-07-09T04:13:28.844Z,58.50
2018-07-09T04:15:57.075Z,57.80
2018-07-09T04:18:25.689Z,57.30
2018-07-09T04:23:23.719Z,56.90
2018-07-09T04:25:52.286Z,56.80
2018-07-09T04:28:20.951Z,56.60
2018-07-09T04:30:49.648Z,56.80
2018-07-09T04:35:46.108Z,58.40
2018-07-09T04:38:14.404Z,59.90
2018-07-09T04:40:42.750Z,61.60
2018-07-09T04:43:11.188Z,63.20
2018-07-09T04:45:39.504Z,62.90
2018-07-09T04:48:07.835Z,61.50
2018-07-09T04:50:36.156Z,60.00
2018-07-09T04:53:04.467Z,59.50
2018-07-09T04:55:32.808Z,59.70
2018-07-09T04:58:01.070Z,59.90
2018-07-09T05:00:29.535Z,59.30
2018-07-09T05:02:57.802Z,59.70
2018-07-09T05:05:26.108Z,60.30
2018-07-09T05:07:54.652Z,59.70
2018-07-09T05:10:22.999Z,60.00
2018-07-09T05:12:51.316Z,61.60
2018-07-09T05:15:19.659Z,60.90
2018-07-09T05:17:47.936Z,59.30
2018-07-09T05:20:16.259Z,58.90
2018-07-09T05:22:44.517Z,59.70
2018-07-09T05:25:19.488Z,62.50
2018-07-09T05:27:47.784Z,62.30
2018-07-09T05:30:16.062Z,63.10
2018-07-09T05:32:44.343Z,63.20
2018-07-09T05:35:12.629Z,62.30
2018-07-09T05:37:40.957Z,62.40
2018-07-09T05:40:09.347Z,63.20
2018-07-09T05:42:38.211Z,64.60
2018-07-09T05:45:06.951Z,66.20
2018-07-09T05:47:35.544Z,66.50
2018-07-09T05:50:03.938Z,66.60
2018-07-09T05:52:32.287Z,65.40
2018-07-09T05:55:00.603Z,64.60
2018-07-09T05:57:28.920Z,63.50
2018-07-09T05:59:57.219Z,64.50
2018-07-09T06:02:25.559Z,63.80
2018-07-09T06:04:53.867Z,63.50
2018-07-09T06:07:22.130Z,61.90
2018-07-09T06:09:50.467Z,63.40
2018-07-09T06:12:18.793Z,63.40
2018-07-09T06:17:35.277Z,66.20
2018-07-09T06:20:03.651Z,67.00
2018-07-09T06:22:31.995Z,66.10
2018-07-09T06:25:00.319Z,67.30
2018-07-09T06:27:28.623Z,67.60
2018-07-09T06:29:56.938Z,68.30
2018-07-09T06:32:25.204Z,69.10
2018-07-09T06:34:53.571Z,68.90
2018-07-09T06:37:21.835Z,69.10
2018-07-09T06:39:50.109Z,69.50
2018-07-09T06:42:18.451Z,70.10
2018-07-09T06:44:46.870Z,69.70
2018-07-09T06:47:15.229Z,69.00
2018-07-09T06:49:50.167Z,69.70
2018-07-09T06:52:18.468Z,66.00
2018-07-09T06:54:46.800Z,61.40
2018-07-09T06:57:15.115Z,58.70
2018-07-09T06:59:43.383Z,58.70
2018-07-09T07:02:11.796Z,58.80
2018-07-09T07:04:40.108Z,57.50
2018-07-09T07:07:08.410Z,57.30
2018-07-09T07:09:36.742Z,56.60
2018-07-09T07:14:47.807Z,57.90
2018-07-09T07:17:16.144Z,57.70
2018-07-09T07:22:12.489Z,59.10
2018-07-09T07:24:40.823Z,59.90
2018-07-09T07:27:09.160Z,60.10
2018-07-09T07:29:37.468Z,59.10
2018-07-09T07:32:05.835Z,59.40
2018-07-09T07:34:34.154Z,58.90
2018-07-09T07:37:04.079Z,59.20
2018-07-09T07:39:32.432Z,59.20
2018-07-09T07:42:02.646Z,58.50
2018-07-09T07:44:31.014Z,58.60
2018-07-09T07:47:01.319Z,58.10
2018-07-09T07:49:29.611Z,58.90
2018-07-09T07:51:57.932Z,59.30
2018-07-09T07:54:26.259Z,58.40
2018-07-09T07:56:54.599Z,57.80
2018-07-09T07:59:22.908Z,58.30
2018-07-09T08:01:51.268Z,57.90
2018-07-09T08:04:19.603Z,57.80
2018-07-09T08:06:47.927Z,57.40
2018-07-09T08:09:16.225Z,57.30
2018-07-09T08:11:48.559Z,58.10
2018-07-09T08:14:12.927Z,58.30
2018-07-09T08:16:41.291Z,58.00
2018-07-09T08:19:09.790Z,57.60
2018-07-09T08:21:38.140Z,57.70
2018-07-09T08:26:34.606Z,55.80
2018-07-09T08:29:03.011Z,55.10
2018-07-09T08:31:31.303Z,55.80
2018-07-09T08:33:59.561Z,54.50
2018-07-09T08:36:27.837Z,54.50
2018-07-09T08:38:56.167Z,54.40
2018-07-09T08:41:24.527Z,54.50
2018-07-09T08:43:52.819Z,54.60
2018-07-09T08:46:21.112Z,53.90
2018-07-09T08:48:49.486Z,54.60
2018-07-09T08:51:17.811Z,53.40
2018-07-09T08:53:46.177Z,51.70
2018-07-09T08:56:14.631Z,50.30
2018-07-09T08:58:42.960Z,50.60
2018-07-09T09:01:11.284Z,49.30
2018-07-09T09:03:39.541Z,50.30
2018-07-09T09:06:07.860Z,50.80
2018-07-09T09:08:36.200Z,50.30
2018-07-09T09:11:04.611Z,50.20
2018-07-09T09:13:32.847Z,50.30
2018-07-09T09:16:01.198Z,47.20
2018-07-09T09:18:30.316Z,48.30
2018-07-09T09:20:57.898Z,45.70
2018-07-09T09:23:26.189Z,46.70
2018-07-09T09:25:54.491Z,48.30
2018-07-09T09:28:22.800Z,49.50
2018-07-09T09:30:51.163Z,47.80
2018-07-09T09:35:47.545Z,48.00
2018-07-09T09:38:15.812Z,46.00
2018-07-09T09:40:44.094Z,45.70
2018-07-09T09:43:12.480Z,47.60
2018-07-09T09:45:40.785Z,46.00
2018-07-09T09:48:09.127Z,47.50
2018-07-09T09:50:37.606Z,47.20
2018-07-09T09:53:06.219Z,44.00
2018-07-09T09:55:35.003Z,44.40
2018-07-09T09:58:03.331Z,43.10
2018-07-09T10:00:37.089Z,42.70
2018-07-09T10:03:05.437Z,43.00
2018-07-09T10:05:33.813Z,42.70
2018-07-09T10:08:02.154Z,44.20
2018-07-09T10:10:30.519Z,44.60
2018-07-09T10:12:58.871Z,44.20
2018-07-09T10:15:56.125Z,43.50
2018-07-09T10:18:24.595Z,44.70
2018-07-09T10:20:52.867Z,45.00
2018-07-09T10:23:21.315Z,44.70
2018-07-09T10:25:49.607Z,45.00
2018-07-09T10:28:17.938Z,44.90
2018-07-09T10:30:46.298Z,43.40
2018-07-09T10:33:14.637Z,42.30
2018-07-09T10:35:42.963Z,41.60
2018-07-09T10:38:11.250Z,42.30
2018-07-09T10:40:39.604Z,39.70
2018-07-09T10:43:07.996Z,40.80
2018-07-09T10:45:36.243Z,42.10
2018-07-09T10:48:04.618Z,43.30
2018-07-09T10:50:32.981Z,44.20
2018-07-09T10:53:01.298Z,44.20
2018-07-09T10:55:29.714Z,43.80
2018-07-09T10:57:58.084Z,43.10
2018-07-09T11:00:26.349Z,44.00
2018-07-09T11:02:54.677Z,41.00
2018-07-09T11:05:23.112Z,41.50
2018-07-09T11:07:51.379Z,43.00
2018-07-09T11:10:19.679Z,42.50
2018-07-09T11:12:47.955Z,39.30
2018-07-09T11:16:01.417Z,40.50
2018-07-09T11:18:29.703Z,41.20
2018-07-09T11:20:58.051Z,40.80
2018-07-09T11:23:26.318Z,40.80
2018-07-09T11:25:54.651Z,41.40
2018-07-09T11:28:23.009Z,41.70
2018-07-09T11:30:51.340Z,43.40
2018-07-09T11:33:19.618Z,45.10
2018-07-09T11:35:47.966Z,46.20
2018-07-09T11:38:16.287Z,45.80
2018-07-09T11:40:44.561Z,44.30
2018-07-09T11:43:12.833Z,44.30
2018-07-09T11:45:41.115Z,42.30
2018-07-09T11:48:09.445Z,43.00
2018-07-09T11:50:37.800Z,41.90
2018-07-09T11:53:06.255Z,40.70
2018-07-09T11:55:34.971Z,40.30
2018-07-09T11:58:03.281Z,40.40
2018-07-09T12:00:31.737Z,40.90
2018-07-09T12:03:00.064Z,40.10
2018-07-09T12:05:28.368Z,38.90
2018-07-09T12:07:56.701Z,38.30
2018-07-09T12:10:25.025Z,37.80
2018-07-09T12:12:53.347Z,37.60
2018-07-09T12:18:24.965Z,38.90
2018-07-09T12:20:53.269Z,41.20
2018-07-09T12:23:21.552Z,41.00
2018-07-09T12:25:49.855Z,39.50
2018-07-09T12:28:18.227Z,39.50
2018-07-09T12:30:46.539Z,40.10
2018-07-09T12:35:43.067Z,39.70
2018-07-09T12:38:11.392Z,40.00
2018-07-09T12:40:39.727Z,38.40
2018-07-09T12:43:08.496Z,37.90
2018-07-09T12:45:36.875Z,37.40
2018-07-09T12:48:05.346Z,39.20
2018-07-09T12:50:34.083Z,39.30
2018-07-09T12:53:02.404Z,38.40
2018-07-09T12:55:30.957Z,39.20
2018-07-09T13:00:27.317Z,38.60
2018-07-09T13:02:55.680Z,36.80
2018-07-09T13:05:24.107Z,40.20
2018-07-09T13:07:52.388Z,38.90
2018-07-09T13:10:20.720Z,38.20
2018-07-09T13:16:04.415Z,36.90
2018-07-09T13:18:32.781Z,36.10
2018-07-09T13:21:01.082Z,36.10
2018-07-09T13:23:29.363Z,36.40
2018-07-09T13:25:57.642Z,37.00
2018-07-09T13:28:25.919Z,36.30
2018-07-09T13:30:54.329Z,37.40
2018-07-09T13:33:22.782Z,37.00
2018-07-09T13:35:51.228Z,37.60
2018-07-09T13:38:19.584Z,36.90
2018-07-09T13:40:47.959Z,36.60
2018-07-09T13:43:16.263Z,37.40
2018-07-09T13:48:12.703Z,39.20
2018-07-09T13:50:41.077Z,40.50
2018-07-09T13:53:09.491Z,41.70
2018-07-09T13:55:37.900Z,41.50
2018-07-09T13:58:06.343Z,41.60
2018-07-09T14:00:34.793Z,40.90
2018-07-09T14:03:03.105Z,41.90
2018-07-09T14:05:31.528Z,42.90
2018-07-09T14:07:59.811Z,42.80
2018-07-09T14:10:28.147Z,40.40
2018-07-09T14:12:56.512Z,40.60
2018-07-09T14:18:42.920Z,38.90
2018-07-09T14:21:11.331Z,39.20
2018-07-09T14:23:39.582Z,39.20
2018-07-09T14:26:07.875Z,40.90
2018-07-09T14:28:36.170Z,39.80
2018-07-09T14:31:04.492Z,39.80
2018-07-09T14:33:32.820Z,40.90
2018-07-09T14:36:01.103Z,40.80
2018-07-09T14:38:29.457Z,42.00
2018-07-09T14:40:57.815Z,41.10
2018-07-09T14:43:26.151Z,41.40
2018-07-09T14:45:54.432Z,41.90
2018-07-09T14:48:22.752Z,40.90
2018-07-09T14:50:51.050Z,42.30
2018-07-09T14:53:19.373Z,42.70
2018-07-09T14:55:47.736Z,40.90
2018-07-09T14:58:16.039Z,41.10
2018-07-09T15:00:44.349Z,40.90
2018-07-09T15:03:12.710Z,42.10
2018-07-09T15:05:41.016Z,43.30
2018-07-09T15:08:09.275Z,43.60
2018-07-09T15:10:37.921Z,44.40
2018-07-09T15:13:06.279Z,44.00
2018-07-09T15:18:55.861Z,44.50
2018-07-09T15:21:24.163Z,44.90
2018-07-09T15:23:52.482Z,45.00
2018-07-09T15:26:20.751Z,45.60
2018-07-09T15:28:49.036Z,46.00
2018-07-09T15:31:17.371Z,45.80
2018-07-09T15:33:45.709Z,45.40
2018-07-09T15:36:13.965Z,46.10
2018-07-09T15:38:42.251Z,46.10
2018-07-09T15:43:49.567Z,47.20
2018-07-09T15:46:17.876Z,47.20
2018-07-09T15:48:46.180Z,47.00
2018-07-09T15:51:14.464Z,47.60
2018-07-09T15:53:42.800Z,47.30
2018-07-09T15:56:11.124Z,47.60
2018-07-09T15:58:39.415Z,48.10
2018-07-09T16:01:07.783Z,48.40
2018-07-09T16:03:36.034Z,48.40
2018-07-09T16:06:04.391Z,48.30
2018-07-09T16:08:32.667Z,48.00
2018-07-09T16:13:28.956Z,48.90
2018-07-09T16:19:16.874Z,48.90
2018-07-09T16:24:13.188Z,49.20
2018-07-09T16:26:41.595Z,49.30
2018-07-09T16:29:09.961Z,49.00
2018-07-09T16:31:38.340Z,48.50
2018-07-09T16:34:06.891Z,48.20
2018-07-09T16:36:35.343Z,48.10
2018-07-09T16:41:33.317Z,48.10
2018-07-09T16:44:01.707Z,48.30
2018-07-09T16:46:30.052Z,48.80
2018-07-09T16:48:58.462Z,48.80
2018-07-09T16:51:26.804Z,49.20
2018-07-09T16:53:55.171Z,49.50
2018-07-09T16:56:23.431Z,49.80
2018-07-09T16:58:51.810Z,51.30
2018-07-09T17:01:20.145Z,50.50
2018-07-09T17:03:48.487Z,50.50
2018-07-09T17:06:16.820Z,50.80
2018-07-09T17:08:45.123Z,51.20
2018-07-09T17:11:13.438Z,50.70
2018-07-09T17:13:41.753Z,50.60
2018-07-09T17:19:31.410Z,51.50
2018-07-09T17:21:59.723Z,52.00
2018-07-09T17:24:28.063Z,51.30
2018-07-09T17:26:56.511Z,51.50
2018-07-09T17:29:24.621Z,52.30
2018-07-09T17:31:53.033Z,51.80
2018-07-09T17:34:21.315Z,52.30
2018-07-09T17:36:49.775Z,53.60
2018-07-09T17:39:18.080Z,54.00
2018-07-09T17:41:46.356Z,54.10
2018-07-09T17:44:14.759Z,53.90
2018-07-09T17:46:43.059Z,54.50
2018-07-09T17:49:11.368Z,55.00
2018-07-09T17:51:39.702Z,55.30
2018-07-09T17:54:08.076Z,54.80
2018-07-09T17:56:36.425Z,54.30
2018-07-09T17:59:04.836Z,54.40
2018-07-09T18:01:33.127Z,54.50
2018-07-09T18:04:01.448Z,54.40
2018-07-09T18:06:29.856Z,54.90
2018-07-09T18:08:58.229Z,54.40
2018-07-09T18:11:32.459Z,54.70
2018-07-09T18:14:00.802Z,54.30
2018-07-09T18:19:56.853Z,54.60
2018-07-09T18:22:25.403Z,54.80
2018-07-09T18:27:22.472Z,54.60
2018-07-09T18:32:20.068Z,55.20
2018-07-09T18:34:48.883Z,54.90
2018-07-09T18:37:17.772Z,54.70
2018-07-09T18:39:46.836Z,54.20
2018-07-09T18:42:15.878Z,53.90
2018-07-09T18:44:44.843Z,53.80
2018-07-09T18:47:13.893Z,54.10
2018-07-09T18:49:43.001Z,54.00
2018-07-09T18:52:12.056Z,54.20
2018-07-09T18:54:41.051Z,54.60
2018-07-09T18:57:10.111Z,54.80
2018-07-09T18:59:39.152Z,55.30
2018-07-09T19:02:08.255Z,55.50
2018-07-09T19:04:37.357Z,55.20
2018-07-09T19:07:09.064Z,54.70
2018-07-09T19:09:38.887Z,54.60
2018-07-09T19:12:09.031Z,54.30
2018-07-09T19:15:24.711Z,54.30
2018-07-09T19:18:05.729Z,53.80
2018-07-09T19:20:45.175Z,53.90
2018-07-09T19:23:12.534Z,53.50
2018-07-09T19:25:39.823Z,53.20
2018-07-09T19:28:07.877Z,53.00
2018-07-09T19:30:35.114Z,52.90
2018-07-09T19:33:02.445Z,52.70
2018-07-09T19:35:29.828Z,52.50
2018-07-09T19:37:57.329Z,52.80
2018-07-09T19:40:24.389Z,52.70
2018-07-09T19:42:51.673Z,52.90
2018-07-09T19:45:18.981Z,52.90
2018-07-09T19:47:46.335Z,52.70
2018-07-09T19:50:13.683Z,52.60
2018-07-09T19:52:41.023Z,52.70
2018-07-09T19:55:08.311Z,53.10
2018-07-09T19:57:35.595Z,53.30
2018-07-09T20:00:02.892Z,53.40
2018-07-09T20:02:30.178Z,53.90
2018-07-09T20:04:57.516Z,53.80
2018-07-09T20:07:24.835Z,53.80
2018-07-09T20:09:57.369Z,53.50
2018-07-09T20:15:26.138Z,53.40
2018-07-09T20:17:56.308Z,53.70
2018-07-09T20:22:52.552Z,53.80
2018-07-09T20:25:20.189Z,53.90
2018-07-09T20:30:54.739Z,54.10
2018-07-09T20:33:22.023Z,54.30
2018-07-09T20:35:49.315Z,54.80
2018-07-09T20:38:16.597Z,54.90
2018-07-09T20:40:43.954Z,55.10
2018-07-09T20:43:11.803Z,55.20
2018-07-09T20:45:39.107Z,55.20
2018-07-09T20:48:06.389Z,55.30
2018-07-09T20:50:33.629Z,55.40
2018-07-09T20:53:00.863Z,55.50
2018-07-09T20:55:28.208Z,55.50
2018-07-09T20:57:55.420Z,55.70
2018-07-09T21:00:22.693Z,55.60
2018-07-09T21:02:49.960Z,55.60
2018-07-09T21:05:17.220Z,55.80
2018-07-09T21:07:44.427Z,56.00
2018-07-09T21:10:11.697Z,55.90
2018-07-09T21:12:44.000Z,56.30
2018-07-09T21:15:35.442Z,56.40
2018-07-09T21:18:02.499Z,56.40
2018-07-09T21:20:29.471Z,56.80
2018-07-09T21:22:56.466Z,56.80
2018-07-09T21:25:23.420Z,56.70
2018-07-09T21:27:50.399Z,56.80
2018-07-09T21:30:17.310Z,56.80
2018-07-09T21:32:44.256Z,56.60
2018-07-09T21:35:11.212Z,57.20
2018-07-09T21:37:38.283Z,57.10
2018-07-09T21:40:05.273Z,57.40
2018-07-09T21:42:32.233Z,57.20
2018-07-09T21:44:59.202Z,57.30
2018-07-09T21:47:26.172Z,57.50
2018-07-09T21:49:53.116Z,57.50
2018-07-09T21:52:20.143Z,57.70
2018-07-09T21:54:47.119Z,57.80
2018-07-09T21:57:14.097Z,58.00
2018-07-09T22:02:08.463Z,58.40
2018-07-09T22:04:35.432Z,58.00
2018-07-09T22:07:03.688Z,58.10
2018-07-09T22:09:30.621Z,58.20
2018-07-09T22:11:57.552Z,58.40
2018-07-09T22:14:24.555Z,58.20
2018-07-09T22:16:51.524Z,58.00
2018-07-09T22:19:18.419Z,58.10
2018-07-09T22:21:45.590Z,58.30
2018-07-09T22:24:12.564Z,58.50
2018-07-09T22:26:39.557Z,58.50
2018-07-09T22:29:06.565Z,58.50
2018-07-09T22:34:02.855Z,58.30
2018-07-09T22:36:31.102Z,58.50
2018-07-09T22:38:59.417Z,58.30
2018-07-09T22:41:27.724Z,58.30
2018-07-09T22:44:06.940Z,58.70
2018-07-09T22:46:35.275Z,58.80
2018-07-09T22:49:03.599Z,58.90
2018-07-09T22:51:31.877Z,58.90
2018-07-09T22:54:00.196Z,58.90
2018-07-09T22:58:56.478Z,59.20
2018-07-09T23:01:24.775Z,59.20
2018-07-09T23:03:53.099Z,59.00
2018-07-09T23:06:21.395Z,59.40
2018-07-09T23:11:28.929Z,59.60
2018-07-09T23:15:37.969Z,59.50
2018-07-09T23:19:14.785Z,59.80
2018-07-09T23:22:20.458Z,59.60
2018-07-09T23:24:47.368Z,59.60
2018-07-09T23:27:14.372Z,59.40
2018-07-09T23:29:41.338Z,59.60
2018-07-09T23:32:08.407Z,60.20
2018-07-09T23:34:35.345Z,59.30
2018-07-09T23:37:03.564Z,59.50
2018-07-09T23:39:30.508Z,59.50
2018-07-09T23:41:57.470Z,59.40
2018-07-09T23:44:24.423Z,59.70
2018-07-09T23:46:51.407Z,59.70
2018-07-09T23:49:18.336Z,59.70
2018-07-09T23:51:45.275Z,59.60
2018-07-09T23:56:50.214Z,59.80
2018-07-09T23:59:29.406Z,59.60
